Time;durP1;ratioP1;P1;durP2;ratioP2;P2;SDS_P1;SDS_P2;PMS_P1;PMS_P2;Temp;Humidity;BMP_temperature;BMP_pressure;BME280_temperature;BME280_humidity;BME280_pressure;Samples;Min_cycle;Max_cycle;Signal;HPM_P1;HPM_P2
2023/04/15 00:01:38;;;;;;;9.77;5.95;;;8.40;99.90;;;;;;6069992;23;93228;-79
2023/04/15 00:04:05;;;;;;;9.27;5.47;;;8.40;99.90;;;;;;6096170;23;92830;-79
2023/04/15 00:06:32;;;;;;;7.43;5.68;;;8.40;99.90;;;;;;6045674;23;92378;-78
2023/04/15 00:08:59;;;;;;;11.80;6.43;;;8.30;99.90;;;;;;6070073;23;92525;-78
2023/04/15 00:11:27;;;;;;;6.82;5.95;;;8.30;99.90;;;;;;6068213;23;95493;-78
2023/04/15 00:13:53;;;;;;;11.07;6.10;;;8.30;99.90;;;;;;6045561;23;98003;-78
2023/04/15 00:16:20;;;;;;;9.93;6.18;;;8.20;99.90;;;;;;6094924;23;100578;-78
2023/04/15 00:18:48;;;;;;;19.10;6.90;;;8.20;99.90;;;;;;6095963;23;92423;-78
2023/04/15 00:21:14;;;;;;;9.50;7.10;;;8.10;99.90;;;;;;6095414;23;93289;-78
2023/04/15 00:23:42;;;;;;;12.18;6.35;;;8.10;99.90;;;;;;6095789;23;92959;-78
2023/04/15 00:26:09;;;;;;;9.82;6.30;;;8.10;99.90;;;;;;6095683;23;92343;-78
2023/04/15 00:28:37;;;;;;;8.90;6.18;;;8.00;99.90;;;;;;6094216;23;91768;-78
2023/04/15 00:31:04;;;;;;;12.25;6.25;;;8.00;99.90;;;;;;6070217;23;93000;-78
2023/04/15 00:33:32;;;;;;;9.20;6.07;;;8.00;99.90;;;;;;6069339;23;95067;-78
2023/04/15 00:35:59;;;;;;;11.65;6.53;;;8.00;99.90;;;;;;6067984;23;94795;-78
2023/04/15 00:38:26;;;;;;;9.82;6.57;;;7.90;99.90;;;;;;6095575;23;93332;-78
2023/04/15 00:40:54;;;;;;;12.10;6.35;;;7.90;99.90;;;;;;6069736;23;92381;-78
2023/04/15 00:43:21;;;;;;;9.38;6.93;;;7.90;99.90;;;;;;6068998;23;94042;-78
2023/04/15 00:45:50;;;;;;;9.40;6.20;;;7.80;99.90;;;;;;6069551;23;92424;-78
2023/04/15 00:48:18;;;;;;;12.10;7.05;;;7.80;99.90;;;;;;6095699;23;92345;-78
2023/04/15 00:50:45;;;;;;;10.70;6.68;;;7.80;99.90;;;;;;6045013;23;95814;-78
2023/04/15 00:53:12;;;;;;;11.23;7.00;;;7.70;99.90;;;;;;6069924;23;92973;-78
2023/04/15 00:55:39;;;;;;;11.05;6.88;;;7.70;99.90;;;;;;6069547;23;92363;-78
2023/04/15 00:58:06;;;;;;;12.45;7.05;;;7.70;99.90;;;;;;6045241;23;92503;-78
2023/04/15 01:00:34;;;;;;;8.73;6.88;;;7.60;99.90;;;;;;6067432;23;99196;-78
2023/04/15 01:03:02;;;;;;;9.35;6.78;;;7.60;99.90;;;;;;6044704;23;95204;-78
2023/04/15 01:05:30;;;;;;;14.73;6.97;;;7.60;99.90;;;;;;6095567;23;92325;-78
2023/04/15 01:07:57;;;;;;;9.77;6.82;;;7.50;99.90;;;;;;6069823;23;92363;-78
2023/04/15 01:10:24;;;;;;;11.95;7.65;;;7.50;99.90;;;;;;6068725;23;109091;-78
2023/04/15 01:12:51;;;;;;;11.55;7.68;;;7.50;99.90;;;;;;6095428;23;92397;-78
2023/04/15 01:15:19;;;;;;;11.60;6.88;;;7.50;99.90;;;;;;6069318;23;92450;-79
2023/04/15 01:17:46;;;;;;;12.85;7.90;;;7.50;99.90;;;;;;6045536;23;91609;-78
2023/04/15 01:20:15;;;;;;;11.38;7.85;;;7.50;99.90;;;;;;6095072;23;93185;-79
2023/04/15 01:22:42;;;;;;;12.38;7.10;;;7.40;99.90;;;;;;6068989;23;95744;-78
2023/04/15 01:25:17;;;;;;;10.18;7.13;;;7.40;99.90;;;;;;6068433;23;94868;-78
2023/04/15 01:27:44;;;;;;;12.82;7.38;;;7.40;99.90;;;;;;6094593;23;92614;-79
2023/04/15 01:30:11;;;;;;;11.68;7.38;;;7.40;99.90;;;;;;6044732;23;95644;-78
2023/04/15 01:32:38;;;;;;;12.68;7.88;;;7.30;99.90;;;;;;6069073;23;96056;-79
2023/04/15 01:35:06;;;;;;;12.55;7.63;;;7.30;99.90;;;;;;6045138;23;92409;-78
2023/04/15 01:37:33;;;;;;;10.63;7.93;;;7.30;99.90;;;;;;6068624;23;92435;-78
2023/04/15 01:40:00;;;;;;;14.32;8.18;;;7.30;99.90;;;;;;6095248;23;93148;-78
2023/04/15 01:42:27;;;;;;;11.02;7.63;;;7.30;99.90;;;;;;6021252;23;95183;-78
2023/04/15 01:44:54;;;;;;;8.00;6.93;;;7.20;99.90;;;;;;6094973;23;98203;-78
2023/04/15 01:47:21;;;;;;;9.30;7.35;;;7.20;99.90;;;;;;6068774;23;92478;-78
2023/04/15 01:49:48;;;;;;;10.48;7.28;;;7.20;99.90;;;;;;6067499;23;98108;-78
2023/04/15 01:52:15;;;;;;;10.43;8.05;;;7.20;99.90;;;;;;6068782;23;97917;-78
2023/04/15 01:54:42;;;;;;;11.90;7.93;;;7.10;99.90;;;;;;6069089;23;92376;-78
2023/04/15 01:57:11;;;;;;;10.93;7.65;;;7.10;99.90;;;;;;6045229;23;93027;-78
2023/04/15 01:59:38;;;;;;;11.98;7.43;;;7.10;99.90;;;;;;6044382;23;95423;-78
2023/04/15 02:02:05;;;;;;;11.93;8.05;;;7.00;99.90;;;;;;6044457;23;95581;-78
2023/04/15 02:04:33;;;;;;;10.80;7.65;;;7.00;99.90;;;;;;6094862;23;92317;-78
2023/04/15 02:07:00;;;;;;;12.50;7.55;;;6.90;99.90;;;;;;6069241;23;91717;-78
2023/04/15 02:09:27;;;;;;;12.27;7.88;;;6.90;99.90;;;;;;6068432;23;95746;-78
2023/04/15 02:11:54;;;;;;;14.15;7.32;;;6.90;99.90;;;;;;6068330;23;104712;-78
2023/04/15 02:14:22;;;;;;;11.57;7.85;;;6.80;99.90;;;;;;6066976;23;94858;-79
2023/04/15 02:16:49;;;;;;;11.75;7.88;;;6.80;99.90;;;;;;6068813;23;92518;-78
2023/04/15 02:19:17;;;;;;;16.40;8.07;;;6.70;99.90;;;;;;6069023;23;93152;-78
2023/04/15 02:21:44;;;;;;;12.05;7.53;;;6.70;99.90;;;;;;6068324;23;95372;-79
2023/04/15 02:24:11;;;;;;;11.02;7.72;;;6.70;99.90;;;;;;6068766;23;92297;-78
2023/04/15 02:26:40;;;;;;;11.95;7.93;;;6.70;99.90;;;;;;6044643;23;92508;-78
2023/04/15 02:29:07;;;;;;;10.32;7.95;;;6.60;99.90;;;;;;6068154;23;93130;-78
2023/04/15 02:31:39;;;;;;;10.40;8.27;;;6.60;99.90;;;;;;6068621;23;95744;-79
2023/04/15 02:34:06;;;;;;;11.82;8.10;;;6.60;99.90;;;;;;6068875;23;92477;-78
2023/04/15 02:36:33;;;;;;;11.65;8.35;;;6.60;99.90;;;;;;6068396;23;92560;-79
2023/04/15 02:39:00;;;;;;;14.13;8.23;;;6.50;99.90;;;;;;6067022;23;98131;-78
2023/04/15 02:41:28;;;;;;;10.60;8.18;;;6.50;99.90;;;;;;6045690;23;97732;-78
2023/04/15 02:43:56;;;;;;;12.05;8.98;;;6.40;99.90;;;;;;6070072;23;92482;-78
2023/04/15 02:46:23;;;;;;;15.60;9.23;;;6.40;99.90;;;;;;6070202;23;93239;-78
2023/04/15 02:48:52;;;;;;;12.95;8.82;;;6.40;99.90;;;;;;6069740;23;95816;-79
2023/04/15 02:51:24;;;;;;;10.07;8.45;;;6.40;99.90;;;;;;6069494;23;94079;-79
2023/04/15 02:53:51;;;;;;;12.25;9.00;;;6.40;99.90;;;;;;6046675;23;92449;-78
2023/04/15 02:56:18;;;;;;;13.90;9.45;;;6.30;99.90;;;;;;6046293;23;91730;-78
2023/04/15 02:58:46;;;;;;;14.60;8.20;;;6.30;99.90;;;;;;6069490;23;95596;-78
2023/04/15 03:01:13;;;;;;;12.63;9.75;;;6.30;99.90;;;;;;6070071;23;92927;-78
2023/04/15 03:03:40;;;;;;;11.60;9.35;;;6.30;99.90;;;;;;6068207;23;95514;-78
2023/04/15 03:06:08;;;;;;;12.27;9.13;;;6.30;99.90;;;;;;6070393;23;92508;-78
2023/04/15 03:08:35;;;;;;;10.95;9.15;;;6.20;99.90;;;;;;6069360;23;95432;-78
2023/04/15 03:11:03;;;;;;;13.45;9.48;;;6.20;99.90;;;;;;6045543;23;95295;-78
2023/04/15 03:13:32;;;;;;;17.65;10.05;;;6.20;99.90;;;;;;6069696;23;92373;-78
2023/04/15 03:16:05;;;;;;;15.60;9.50;;;6.20;99.90;;;;;;6046361;23;92446;-78
2023/04/15 03:18:33;;;;;;;16.20;10.02;;;6.10;99.90;;;;;;6069366;23;95434;-78
2023/04/15 03:21:02;;;;;;;15.90;9.70;;;6.20;99.90;;;;;;6045549;23;94538;-78
2023/04/15 03:23:32;;;;;;;14.93;9.55;;;6.10;99.90;;;;;;6046393;23;92920;-79
2023/04/15 03:26:03;;;;;;;13.50;9.80;;;6.10;99.90;;;;;;6045719;23;92493;-78
2023/04/15 03:28:32;;;;;;;13.68;10.07;;;6.10;99.90;;;;;;6067348;23;98286;-79
2023/04/15 03:31:00;;;;;;;14.23;9.80;;;6.10;99.90;;;;;;6068799;23;97355;-78
2023/04/15 03:33:27;;;;;;;16.08;10.32;;;6.00;99.90;;;;;;6069760;23;92537;-79
2023/04/15 03:35:54;;;;;;;15.05;9.85;;;6.00;99.90;;;;;;6095105;23;92489;-78
2023/04/15 03:38:21;;;;;;;15.23;11.10;;;6.00;99.90;;;;;;6045539;23;95889;-79
2023/04/15 03:40:48;;;;;;;15.68;10.35;;;5.90;99.90;;;;;;6069040;23;93026;-78
2023/04/15 03:43:15;;;;;;;13.88;9.73;;;5.90;99.90;;;;;;6095398;23;92390;-79
2023/04/15 03:45:42;;;;;;;15.95;10.48;;;5.90;99.90;;;;;;6096256;23;91734;-78
2023/04/15 03:48:09;;;;;;;14.77;10.18;;;5.90;99.90;;;;;;6095148;23;93215;-78
2023/04/15 03:50:43;;;;;;;15.57;10.38;;;5.80;99.90;;;;;;6094570;23;92467;-78
2023/04/15 03:53:10;;;;;;;19.52;12.07;;;5.80;99.90;;;;;;6043664;23;94752;-78
2023/04/15 03:55:37;;;;;;;17.27;10.98;;;5.80;99.90;;;;;;6095155;23;92296;-78
2023/04/15 03:58:04;;;;;;;18.70;12.35;;;5.80;99.90;;;;;;6095235;23;93356;-78
2023/04/15 04:00:31;;;;;;;18.88;12.98;;;5.70;99.90;;;;;;6068511;23;105524;-78
2023/04/15 04:02:58;;;;;;;16.58;12.07;;;5.70;99.90;;;;;;6069464;23;92474;-78
2023/04/15 04:05:25;;;;;;;21.95;12.40;;;5.70;99.90;;;;;;6069633;23;92379;-78
2023/04/15 04:07:52;;;;;;;20.02;13.27;;;5.70;99.90;;;;;;6094885;23;93241;-78
2023/04/15 04:10:19;;;;;;;20.75;13.60;;;5.70;99.90;;;;;;6069745;23;93109;-78
2023/04/15 04:12:46;;;;;;;27.77;14.63;;;5.60;99.90;;;;;;6068739;23;92461;-78
2023/04/15 04:15:14;;;;;;;23.70;15.38;;;5.60;99.90;;;;;;6095328;23;92367;-78
2023/04/15 04:17:41;;;;;;;24.83;14.88;;;5.60;99.90;;;;;;6093258;23;95672;-78
2023/04/15 04:20:08;;;;;;;23.92;15.15;;;5.60;99.90;;;;;;6094984;23;95318;-78
2023/04/15 04:22:39;;;;;;;26.48;14.98;;;5.60;99.90;;;;;;6069083;23;93033;-78
2023/04/15 04:25:07;;;;;;;23.65;15.07;;;5.60;99.90;;;;;;6069025;23;92958;-78
2023/04/15 04:27:34;;;;;;;22.25;14.05;;;5.60;99.90;;;;;;6044091;23;107470;-79
2023/04/15 04:30:02;;;;;;;27.83;16.35;;;5.50;99.90;;;;;;6044488;23;95807;-78
2023/04/15 04:32:29;;;;;;;28.50;16.10;;;5.60;99.90;;;;;;6068915;23;92517;-78
2023/04/15 04:34:56;;;;;;;28.52;16.83;;;5.60;99.90;;;;;;6069555;23;91725;-78
2023/04/15 04:37:23;;;;;;;28.17;17.27;;;5.60;99.90;;;;;;6094959;23;93223;-78
2023/04/15 04:39:50;;;;;;;26.88;15.82;;;5.60;99.90;;;;;;6094780;23;92991;-78
2023/04/15 04:42:17;;;;;;;26.23;16.75;;;5.60;99.90;;;;;;6043271;23;94898;-78
2023/04/15 04:44:44;;;;;;;28.95;16.38;;;5.60;99.90;;;;;;6094951;23;92450;-78
2023/04/15 04:47:11;;;;;;;27.77;16.35;;;5.60;99.90;;;;;;6069003;23;93213;-78
2023/04/15 04:49:38;;;;;;;24.27;15.60;;;5.60;99.90;;;;;;6020606;23;95811;-78
2023/04/15 04:52:05;;;;;;;25.70;16.17;;;5.60;99.90;;;;;;6068680;23;102923;-79
2023/04/15 04:54:32;;;;;;;27.77;17.48;;;5.70;99.90;;;;;;6068987;23;92447;-78
2023/04/15 04:56:59;;;;;;;29.77;16.80;;;5.70;99.90;;;;;;6068319;23;95956;-78
2023/04/15 04:59:27;;;;;;;24.45;15.38;;;5.70;99.90;;;;;;6069511;23;93038;-78
2023/04/15 05:01:54;;;;;;;29.25;15.82;;;5.80;99.90;;;;;;6094571;23;92319;-78
2023/04/15 05:04:21;;;;;;;31.65;17.33;;;5.80;99.90;;;;;;6043908;23;92528;-78
2023/04/15 05:06:48;;;;;;;30.55;17.70;;;5.90;99.90;;;;;;6093023;23;95679;-78
2023/04/15 05:09:14;;;;;;;30.90;17.88;;;5.90;99.90;;;;;;6044944;23;95175;-78
2023/04/15 05:11:41;;;;;;;28.17;16.58;;;6.00;99.90;;;;;;6094929;23;92332;-78
2023/04/15 05:14:08;;;;;;;28.08;16.60;;;6.00;99.90;;;;;;6069113;23;92493;-78
2023/04/15 05:16:36;;;;;;;27.05;16.15;;;6.10;99.90;;;;;;6020457;23;96094;-79
2023/04/15 05:19:03;;;;;;;22.80;15.30;;;6.10;99.90;;;;;;6094643;23;93083;-78
2023/04/15 05:21:30;;;;;;;26.17;15.68;;;6.10;99.90;;;;;;6067946;23;105378;-78
2023/04/15 05:23:57;;;;;;;24.98;16.23;;;6.20;99.90;;;;;;6069422;23;91647;-78
2023/04/15 05:26:24;;;;;;;23.88;15.45;;;6.20;99.90;;;;;;6094658;23;95049;-78
2023/04/15 05:28:51;;;;;;;24.48;15.02;;;6.30;99.90;;;;;;6094199;23;93049;-78
2023/04/15 05:31:18;;;;;;;26.73;15.75;;;6.30;99.90;;;;;;6067075;23;94823;-78
2023/04/15 05:33:45;;;;;;;24.58;16.33;;;6.40;99.90;;;;;;6044272;23;92552;-79
2023/04/15 05:36:12;;;;;;;21.17;14.35;;;6.50;99.90;;;;;;6094642;23;93136;-79
2023/04/15 05:38:39;;;;;;;21.13;14.93;;;6.50;99.90;;;;;;6068891;23;92966;-78
2023/04/15 05:41:06;;;;;;;21.20;13.30;;;6.60;99.90;;;;;;6068675;23;92504;-79
2023/04/15 05:43:32;;;;;;;19.95;13.30;;;6.70;99.90;;;;;;6094814;23;92407;-78
2023/04/15 05:45:59;;;;;;;20.02;13.52;;;6.70;99.90;;;;;;6067999;23;95730;-79
2023/04/15 05:48:26;;;;;;;18.83;12.63;;;6.80;99.90;;;;;;6044747;23;102024;-79
2023/04/15 05:50:53;;;;;;;21.00;13.65;;;6.90;99.90;;;;;;6068603;23;92481;-78
2023/04/15 05:53:20;;;;;;;17.33;13.68;;;6.90;99.90;;;;;;6068822;23;92417;-78
2023/04/15 05:55:47;;;;;;;17.67;12.63;;;7.00;99.90;;;;;;6042976;23;95695;-78
2023/04/15 05:58:14;;;;;;;18.52;13.23;;;7.00;99.90;;;;;;6094345;23;95370;-79
2023/04/15 06:00:41;;;;;;;17.85;13.00;;;7.10;99.90;;;;;;6068702;23;92507;-78
2023/04/15 06:03:08;;;;;;;18.80;12.73;;;7.20;99.90;;;;;;6068198;23;92450;-78
2023/04/15 06:05:35;;;;;;;17.27;12.98;;;7.30;99.90;;;;;;6068564;23;93010;-78
2023/04/15 06:08:02;;;;;;;17.23;12.52;;;7.40;99.90;;;;;;6094008;23;92903;-78
2023/04/15 06:10:29;;;;;;;16.42;11.93;;;7.60;99.90;;;;;;6094707;23;92908;-78
2023/04/15 06:12:56;;;;;;;17.67;12.02;;;7.60;99.90;;;;;;6068946;23;91678;-78
2023/04/15 06:15:23;;;;;;;16.35;11.82;;;7.70;99.90;;;;;;6044761;23;95872;-78
2023/04/15 06:17:50;;;;;;;15.48;11.38;;;7.70;99.90;;;;;;6069368;23;102359;-78
2023/04/15 06:20:17;;;;;;;16.58;11.18;;;7.90;99.90;;;;;;6094319;23;94858;-78
2023/04/15 06:22:45;;;;;;;15.43;10.82;;;7.90;99.90;;;;;;6095687;23;92407;-78
2023/04/15 06:25:12;;;;;;;14.98;11.07;;;8.00;99.90;;;;;;6069418;23;93107;-78
2023/04/15 06:27:39;;;;;;;12.18;8.55;;;8.10;99.90;;;;;;6045716;23;93066;-78
2023/04/15 06:30:07;;;;;;;13.13;10.50;;;8.20;99.90;;;;;;6064777;23;92442;-79
2023/04/15 06:32:34;;;;;;;13.93;9.57;;;8.20;99.90;;;;;;6040343;23;92679;-78
2023/04/15 06:35:01;;;;;;;10.73;8.32;;;8.30;99.90;;;;;;6066672;23;93198;-78
2023/04/15 06:37:28;;;;;;;12.27;9.13;;;8.40;99.90;;;;;;6065455;23;95363;-78
2023/04/15 06:39:55;;;;;;;13.13;8.50;;;8.50;99.90;;;;;;6065294;23;92408;-78
2023/04/15 06:42:22;;;;;;;14.38;9.10;;;8.50;99.90;;;;;;6066811;23;92597;-78
2023/04/15 06:44:50;;;;;;;11.35;7.43;;;8.60;99.90;;;;;;6065073;23;95653;-78
2023/04/15 06:47:17;;;;;;;13.57;7.60;;;8.60;99.90;;;;;;6040412;23;98099;-78
2023/04/15 06:49:44;;;;;;;10.32;6.38;;;8.70;99.90;;;;;;6089830;23;92360;-78
2023/04/15 06:52:11;;;;;;;9.77;7.82;;;8.70;99.90;;;;;;6066640;23;92325;-78
2023/04/15 06:54:38;;;;;;;9.02;7.25;;;8.90;99.90;;;;;;6064879;23;95945;-79
2023/04/15 06:57:06;;;;;;;10.93;8.02;;;9.00;99.90;;;;;;6065048;23;93464;-78
2023/04/15 06:59:33;;;;;;;10.48;7.63;;;9.30;99.90;;;;;;6065109;23;92376;-79
2023/04/15 07:02:00;;;;;;;8.00;6.25;;;9.40;99.90;;;;;;6066872;23;91670;-79
2023/04/15 07:04:27;;;;;;;10.07;6.63;;;9.50;99.90;;;;;;6064899;23;95803;-79
2023/04/15 07:06:54;;;;;;;12.77;7.45;;;9.60;99.90;;;;;;6064728;23;97442;-78
2023/04/15 07:09:24;;;;;;;8.35;5.43;;;9.70;99.90;;;;;;6065026;23;94929;-79
2023/04/15 07:11:51;;;;;;;10.77;7.32;;;9.80;99.90;;;;;;6065280;23;92448;-79
2023/04/15 07:14:18;;;;;;;10.70;6.80;;;9.90;99.90;;;;;;6040117;23;105376;-78
2023/04/15 07:16:46;;;;;;;6.78;5.20;;;10.00;99.90;;;;;;6066556;23;92755;-79
2023/04/15 07:19:13;;;;;;;9.88;6.15;;;10.00;99.90;;;;;;6066727;23;93233;-79
2023/04/15 07:21:40;;;;;;;8.20;6.35;;;10.10;99.90;;;;;;6066645;23;92357;-78
2023/04/15 07:24:09;;;;;;;7.80;6.22;;;10.20;99.90;;;;;;6066294;23;93452;-78
2023/04/15 07:26:36;;;;;;;9.38;6.40;;;10.30;99.90;;;;;;6064974;23;92736;-79
2023/04/15 07:29:03;;;;;;;8.57;5.95;;;10.50;99.90;;;;;;6064596;23;92903;-79
2023/04/15 07:31:30;;;;;;;5.90;5.28;;;10.60;99.90;;;;;;6066713;23;92430;-78
2023/04/15 07:33:57;;;;;;;7.75;5.15;;;10.60;99.90;;;;;;6064987;23;95534;-79
2023/04/15 07:36:24;;;;;;;7.90;5.15;;;10.80;99.90;;;;;;6064685;23;94215;-78
2023/04/15 07:38:51;;;;;;;8.63;6.55;;;10.90;99.90;;;;;;6065327;23;92411;-78
2023/04/15 07:41:19;;;;;;;8.82;6.50;;;11.10;99.90;;;;;;6066097;23;95972;-79
2023/04/15 07:43:47;;;;;;;9.07;6.78;;;11.20;99.90;;;;;;6040384;23;96067;-79
2023/04/15 07:46:14;;;;;;;7.30;6.30;;;11.10;99.90;;;;;;6064634;23;92933;-78
2023/04/15 07:48:42;;;;;;;8.18;7.18;;;11.20;99.90;;;;;;6064844;23;92465;-78
2023/04/15 07:51:09;;;;;;;7.68;6.05;;;11.20;99.90;;;;;;6040890;23;91717;-78
2023/04/15 07:53:37;;;;;;;6.20;5.10;;;11.20;99.90;;;;;;6066451;23;93738;-78
2023/04/15 07:56:04;;;;;;;4.70;3.90;;;11.10;99.90;;;;;;6064321;23;94569;-78
2023/04/15 07:58:31;;;;;;;6.00;4.57;;;11.00;99.90;;;;;;6088169;23;94889;-78
2023/04/15 08:00:58;;;;;;;5.03;4.07;;;11.10;99.90;;;;;;6040730;23;92595;-78
2023/04/15 08:03:25;;;;;;;4.05;3.45;;;11.20;99.90;;;;;;6066013;23;93575;-78
2023/04/15 08:05:53;;;;;;;4.90;3.67;;;11.20;99.90;;;;;;6066370;23;92799;-78
2023/04/15 08:08:21;;;;;;;4.85;4.35;;;11.20;99.90;;;;;;6066080;23;95911;-78
2023/04/15 08:10:48;;;;;;;5.68;3.80;;;11.20;99.90;;;;;;6064575;23;92483;-78
2023/04/15 08:13:17;;;;;;;8.38;4.93;;;11.20;99.90;;;;;;6088330;23;93298;-78
2023/04/15 08:15:44;;;;;;;5.57;4.47;;;11.20;99.90;;;;;;6065304;23;92994;-78
2023/04/15 08:18:11;;;;;;;4.50;4.00;;;11.30;99.90;;;;;;6064570;23;92475;-78
2023/04/15 08:20:39;;;;;;;4.43;3.50;;;11.40;99.90;;;;;;6065109;23;92815;-78
2023/04/15 08:23:06;;;;;;;4.18;3.42;;;11.30;99.90;;;;;;6062956;23;98102;-79
2023/04/15 08:25:33;;;;;;;4.63;4.20;;;11.20;99.90;;;;;;6066013;23;95580;-78
2023/04/15 08:28:05;;;;;;;4.13;3.50;;;11.10;99.90;;;;;;6065034;23;92451;-78
2023/04/15 08:30:33;;;;;;;5.07;3.17;;;11.10;99.90;;;;;;6069779;23;92424;-78
2023/04/15 08:33:00;;;;;;;4.78;3.83;;;10.90;99.90;;;;;;6069329;23;95736;-79
2023/04/15 08:35:27;;;;;;;3.60;3.10;;;10.80;99.90;;;;;;6044976;23;95658;-78
2023/04/15 08:37:54;;;;;;;4.15;3.63;;;10.90;99.90;;;;;;6069488;23;92400;-78
2023/04/15 08:40:25;;;;;;;3.67;3.33;;;10.80;99.90;;;;;;6096041;23;91668;-78
2023/04/15 08:42:53;;;;;;;5.32;3.75;;;10.90;99.90;;;;;;6095571;23;93198;-78
2023/04/15 08:45:21;;;;;;;5.97;3.38;;;11.00;99.90;;;;;;6095388;23;92956;-78
2023/04/15 08:47:55;;;;;;;4.43;3.33;;;11.00;99.90;;;;;;6068047;23;94986;-78
2023/04/15 08:50:24;;;;;;;3.08;2.83;;;11.20;99.90;;;;;;6095619;23;92372;-78
2023/04/15 08:52:54;;;;;;;4.35;3.03;;;11.00;99.90;;;;;;6095586;23;93224;-78
2023/04/15 08:55:22;;;;;;;11.93;3.55;;;11.00;99.90;;;;;;6095375;23;93097;-79
2023/04/15 08:57:50;;;;;;;4.85;3.25;;;10.90;99.90;;;;;;6069830;23;92482;-78
2023/04/15 09:00:17;;;;;;;2.88;2.50;;;10.90;99.90;;;;;;6044989;23;92441;-78
2023/04/15 09:02:45;;;;;;;8.15;3.28;;;10.80;99.90;;;;;;6095368;23;93271;-78
2023/04/15 09:05:12;;;;;;;4.90;3.35;;;10.80;99.90;;;;;;6045453;23;95560;-78
2023/04/15 09:07:40;;;;;;;4.88;3.88;;;10.90;99.90;;;;;;6095791;23;92528;-78
2023/04/15 09:10:07;;;;;;;3.03;2.67;;;11.00;99.90;;;;;;6070077;23;92665;-78
2023/04/15 09:12:35;;;;;;;4.38;3.33;;;11.00;99.90;;;;;;6093718;23;95650;-78
2023/04/15 09:15:03;;;;;;;3.20;2.95;;;11.10;99.90;;;;;;6095436;23;95392;-78
2023/04/15 09:17:32;;;;;;;5.47;3.38;;;11.10;99.90;;;;;;6069576;23;92438;-79
2023/04/15 09:20:14;;;;;;;4.78;2.50;;;11.20;99.90;;;;;;6069189;23;92421;-78
2023/04/15 09:22:42;;;;;;;4.10;3.00;;;11.40;99.90;;;;;;6069554;23;92471;-78
2023/04/15 09:25:21;;;;;;;4.30;2.83;;;11.40;99.90;;;;;;6095517;23;93078;-78
2023/04/15 09:27:49;;;;;;;5.25;2.50;;;11.60;99.90;;;;;;6095685;23;92303;-78
2023/04/15 09:30:16;;;;;;;4.18;3.00;;;11.50;99.90;;;;;;6045008;23;91745;-78
2023/04/15 09:32:52;;;;;;;5.32;2.60;;;11.50;99.90;;;;;;6068959;23;95993;-78
2023/04/15 09:35:21;;;;;;;4.90;3.08;;;11.50;99.90;;;;;;6095097;23;92942;-79
2023/04/15 09:37:49;;;;;;;5.95;3.45;;;11.30;99.90;;;;;;6093725;23;95694;-78
2023/04/15 09:40:36;;;;;;;3.60;2.35;;;11.20;99.90;;;;;;6095191;23;92417;-79
2023/04/15 09:43:04;;;;;;;5.43;2.75;;;11.20;99.90;;;;;;6069054;23;95987;-78
2023/04/15 09:45:33;;;;;;;2.83;2.13;;;11.20;99.90;;;;;;6069224;23;92431;-78
2023/04/15 09:48:16;;;;;;;6.45;3.00;;;11.10;99.90;;;;;;6044473;23;98509;-78
2023/04/15 09:50:43;;;;;;;2.85;2.50;;;11.10;99.90;;;;;;6096457;23;92425;-78
2023/04/15 09:53:14;;;;;;;4.70;2.35;;;11.00;99.90;;;;;;6096402;23;92833;-79
2023/04/15 09:56:01;;;;;;;5.53;2.90;;;11.10;99.90;;;;;;6096638;23;92796;-78
2023/04/15 09:58:32;;;;;;;4.03;2.25;;;11.40;99.90;;;;;;6070813;23;92900;-79
2023/04/15 10:01:01;;;;;;;3.90;2.97;;;11.20;99.90;;;;;;6070811;23;92938;-78
2023/04/15 10:03:33;;;;;;;5.07;2.38;;;11.20;99.90;;;;;;6043754;23;96846;-78
2023/04/15 10:06:00;;;;;;;4.45;2.35;;;11.30;99.90;;;;;;6045828;23;97805;-78
2023/04/15 10:08:29;;;;;;;4.53;2.45;;;11.40;99.90;;;;;;6046567;23;92353;-78
2023/04/15 10:10:56;;;;;;;2.83;2.20;;;11.40;99.90;;;;;;6070632;23;92434;-78
2023/04/15 10:13:27;;;;;;;4.55;2.45;;;11.40;99.90;;;;;;6096229;23;93228;-78
2023/04/15 10:16:11;;;;;;;4.72;2.97;;;11.40;99.90;;;;;;6070923;23;92870;-78
2023/04/15 10:18:40;;;;;;;;;;;11.40;99.90;;;;;;6096880;23;92354;-78
2023/04/15 10:21:08;;;;;;;6.60;2.90;;;11.30;99.90;;;;;;6098390;23;91685;-78
2023/04/15 10:23:35;;;;;;;3.88;2.70;;;11.40;99.90;;;;;;6069989;23;93279;-78
2023/04/15 10:26:04;;;;;;;4.55;2.75;;;11.50;99.90;;;;;;6070489;23;92984;-78
2023/04/15 10:28:31;;;;;;;2.97;1.80;;;11.60;99.90;;;;;;6043784;23;94917;-78
2023/04/15 10:30:58;;;;;;;3.95;2.35;;;11.40;99.90;;;;;;6046095;23;92486;-78
2023/04/15 10:33:27;;;;;;;2.72;2.50;;;11.40;99.90;;;;;;6070041;23;93155;-78
2023/04/15 10:35:55;;;;;;;3.25;1.77;;;11.40;99.90;;;;;;6070220;23;92921;-78
2023/04/15 10:38:39;;;;;;;3.30;2.55;;;11.30;99.90;;;;;;6070049;23;92447;-79
2023/04/15 10:41:22;;;;;;;2.78;2.28;;;11.30;99.90;;;;;;6047314;23;92453;-79
2023/04/15 10:43:58;;;;;;;5.30;2.50;;;11.30;99.90;;;;;;6070004;23;95714;-78
2023/04/15 10:46:45;;;;;;;3.85;2.63;;;11.40;99.90;;;;;;6096333;23;92987;-79
2023/04/15 10:49:14;;;;;;;4.22;2.17;;;11.40;99.90;;;;;;6096439;23;92379;-78
2023/04/15 10:51:42;;;;;;;3.60;1.88;;;11.30;99.90;;;;;;6046341;23;92533;-79
2023/04/15 10:54:29;;;;;;;4.32;2.35;;;11.30;99.90;;;;;;6094584;23;94847;-79
2023/04/15 10:57:09;;;;;;;3.92;2.78;;;11.40;99.90;;;;;;6096122;23;95365;-79
2023/04/15 10:59:38;;;;;;;4.32;2.55;;;11.30;99.90;;;;;;6070024;23;92917;-78
2023/04/15 11:02:06;;;;;;;5.80;2.30;;;11.20;99.90;;;;;;6096213;23;92425;-79
2023/04/15 11:04:53;;;;;;;3.38;2.08;;;11.20;99.90;;;;;;6095685;23;93173;-79
2023/04/15 11:07:45;;;;;;;3.75;1.98;;;11.20;99.90;;;;;;6096234;23;92806;-78
2023/04/15 11:10:12;;;;;;;2.75;1.58;;;11.20;99.90;;;;;;6070268;23;92473;-78
2023/04/15 11:12:40;;;;;;;3.70;2.20;;;11.20;99.90;;;;;;6096331;23;91679;-79
2023/04/15 11:15:26;;;;;;;4.30;2.05;;;11.00;99.90;;;;;;6045102;23;109568;-78
2023/04/15 11:17:54;;;;;;;3.75;2.30;;;11.10;99.90;;;;;;6095794;23;92898;-78
2023/04/15 11:20:21;;;;;;;2.30;2.10;;;10.90;99.90;;;;;;6043979;23;98909;-78
2023/04/15 11:22:49;;;;;;;4.40;2.17;;;10.90;99.90;;;;;;6094189;23;92430;-79
2023/04/15 11:25:28;;;;;;;4.70;2.30;;;10.90;99.90;;;;;;6095966;23;92375;-79
2023/04/15 11:27:56;;;;;;;4.68;2.50;;;11.00;99.90;;;;;;6095639;23;92936;-79
2023/04/15 11:30:27;;;;;;;2.92;1.90;;;10.90;99.90;;;;;;6070016;23;92370;-79
2023/04/15 11:32:57;;;;;;;4.57;2.65;;;10.80;99.90;;;;;;6069239;23;92516;-79
2023/04/15 11:35:24;;;;;;;4.90;2.90;;;10.70;99.90;;;;;;6069787;23;96693;-79
2023/04/15 11:37:51;;;;;;;3.35;2.13;;;10.60;99.90;;;;;;6070125;23;92798;-79
2023/04/15 11:40:23;;;;;;;3.78;2.25;;;10.60;99.90;;;;;;6070318;23;92394;-79
2023/04/15 11:43:08;;;;;;;3.80;2.50;;;10.60;99.90;;;;;;6069865;23;92411;-79
2023/04/15 11:45:36;;;;;;;3.42;2.08;;;10.60;99.90;;;;;;6094138;23;95711;-79
2023/04/15 11:48:13;;;;;;;2.22;2.00;;;10.50;99.90;;;;;;6045249;23;98247;-79
2023/04/15 11:50:40;;;;;;;2.70;2.10;;;10.60;99.90;;;;;;6045723;23;92482;-79
2023/04/15 11:53:08;;;;;;;5.78;2.83;;;10.50;99.90;;;;;;6096027;23;92422;-80
2023/04/15 11:55:47;;;;;;;3.78;2.50;;;10.50;99.90;;;;;;6069140;23;95648;-79
2023/04/15 11:58:24;;;;;;;4.65;2.00;;;10.40;99.90;;;;;;6069932;23;93211;-79
2023/04/15 12:00:57;;;;;;;5.35;2.72;;;10.40;99.90;;;;;;6069772;23;92869;-79
2023/04/15 12:03:37;;;;;;;6.10;3.03;;;10.40;99.90;;;;;;6070550;23;91735;-79
2023/04/15 12:06:21;;;;;;;4.18;1.90;;;10.40;99.90;;;;;;6069677;23;96014;-79
2023/04/15 12:09:06;;;;;;;2.88;1.92;;;10.40;99.90;;;;;;6095613;23;92916;-79
2023/04/15 12:11:43;;;;;;;3.90;1.92;;;10.30;99.90;;;;;;6068269;23;94888;-79
2023/04/15 12:14:29;;;;;;;6.15;2.00;;;10.20;99.90;;;;;;6069995;23;92940;-79
2023/04/15 12:17:05;;;;;;;2.13;1.63;;;10.10;99.90;;;;;;6069508;23;99417;-79
2023/04/15 12:19:36;;;;;;;6.63;2.85;;;10.10;99.90;;;;;;6095986;23;93930;-79
2023/04/15 12:22:10;;;;;;;3.45;2.00;;;10.10;99.90;;;;;;6095124;23;92971;-79
2023/04/15 12:24:38;;;;;;;3.88;1.70;;;10.10;99.90;;;;;;6095932;23;92442;-79
2023/04/15 12:27:10;;;;;;;2.75;1.73;;;10.10;99.90;;;;;;6069811;23;93218;-79
2023/04/15 12:29:38;;;;;;;3.95;2.42;;;10.10;99.90;;;;;;6095899;23;91793;-80
2023/04/15 12:32:06;;;;;;;4.68;2.00;;;10.10;99.90;;;;;;6069517;23;92467;-80
2023/04/15 12:34:40;;;;;;;4.63;1.73;;;10.10;99.90;;;;;;6069999;23;92442;-80
2023/04/15 12:37:08;;;;;;;5.53;2.28;;;10.10;99.90;;;;;;6068415;23;95485;-81
2023/04/15 12:39:37;;;;;;;5.35;2.42;;;10.10;99.90;;;;;;6095447;23;95148;-81
2023/04/15 12:42:05;;;;;;;6.55;1.85;;;10.10;99.90;;;;;;6069880;23;92950;-81
2023/04/15 12:44:32;;;;;;;4.78;1.95;;;10.00;99.90;;;;;;6095771;23;92450;-81
2023/04/15 12:47:00;;;;;;;3.30;1.60;;;9.90;99.90;;;;;;6095313;23;93116;-81
2023/04/15 12:49:27;;;;;;;5.63;2.30;;;9.80;99.90;;;;;;6069786;23;92890;-81
2023/04/15 12:51:58;;;;;;;4.10;1.90;;;9.80;99.90;;;;;;6095574;23;92391;-81
2023/04/15 12:54:25;;;;;;;3.60;1.90;;;9.70;99.90;;;;;;6096256;23;91669;-81